Time;durP1;ratioP1;P1;durP2;ratioP2;P2;SDS_P1;SDS_P2;PMS_P1;PMS_P2;Temp;Humidity;BMP_temperature;BMP_pressure;BME280_temperature;BME280_humidity;BME280_pressure;Samples;Min_cycle;Max_cycle;Signal;HPM_P1;HPM_P2
2021/10/15 00:01:39;;;;;;;7.58;3.98;;;;;;;7.87;100.00;99509.78;4455781;80;28498;-86
2021/10/15 00:07:40;;;;;;;9.63;4.22;;;;;;;7.96;100.00;99502.38;4433712;80;28556;-85
2021/10/15 00:13:42;;;;;;;10.32;4.65;;;;;;;8.00;100.00;99497.45;4444792;80;28481;-85
2021/10/15 00:19:44;;;;;;;13.08;5.37;;;;;;;8.05;100.00;99495.81;4418177;80;28474;-85
2021/10/15 00:25:45;;;;;;;10.95;5.78;;;;;;;8.03;100.00;99496.53;4421474;80;28558;-87
2021/10/15 00:31:46;;;;;;;12.15;6.53;;;;;;;8.08;100.00;99495.42;4412268;80;28476;-87
2021/10/15 00:37:48;;;;;;;17.77;7.95;;;;;;;8.06;100.00;99489.95;4420332;79;28452;-86
2021/10/15 00:44:08;;;;;;;13.75;6.35;;;;;;;8.05;100.00;99476.25;4433927;78;28490;-87
2021/10/15 00:50:10;;;;;;;10.25;5.33;;;;;;;8.05;100.00;99471.70;4441322;80;28541;-86
2021/10/15 00:56:13;;;;;;;9.98;5.78;;;;;;;8.01;100.00;99467.80;4400163;80;28493;-87
2021/10/15 01:02:14;;;;;;;12.03;5.22;;;;;;;7.93;100.00;99458.12;4393159;80;28563;-85
2021/10/15 01:08:15;;;;;;;8.53;5.10;;;;;;;7.83;100.00;99453.67;4429496;79;28507;-84
2021/10/15 01:14:18;;;;;;;10.75;5.35;;;;;;;7.80;100.00;99445.52;4442688;80;28466;-86
2021/10/15 01:20:19;;;;;;;9.43;5.08;;;;;;;7.66;100.00;99451.87;4463799;80;28498;-85
2021/10/15 01:26:20;;;;;;;10.78;5.95;;;;;;;7.44;100.00;99445.83;4433569;80;28536;-85
2021/10/15 01:32:22;;;;;;;11.78;6.28;;;;;;;7.21;100.00;99448.32;4436573;80;28505;-85
2021/10/15 01:38:23;;;;;;;11.08;4.90;;;;;;;7.13;100.00;99439.93;4427469;80;28558;-85
2021/10/15 01:44:25;;;;;;;9.18;4.78;;;;;;;7.17;100.00;99431.84;4463698;79;28459;-85
2021/10/15 01:50:28;;;;;;;10.55;4.65;;;;;;;7.12;100.00;99424.91;4385037;81;28502;-85
2021/10/15 01:56:29;;;;;;;11.28;5.15;;;;;;;7.08;100.00;99425.01;4399247;80;28476;-85
2021/10/15 02:02:30;;;;;;;9.53;5.05;;;;;;;7.00;100.00;99422.00;4348684;81;28552;-85
2021/10/15 02:08:32;;;;;;;9.25;5.03;;;;;;;6.91;100.00;99415.16;4322548;81;28469;-85
2021/10/15 02:14:33;;;;;;;12.05;4.58;;;;;;;6.92;100.00;99418.14;4346552;81;28546;-84
2021/10/15 02:20:35;;;;;;;8.40;4.65;;;;;;;6.84;100.00;99407.11;4344596;81;28488;-84
2021/10/15 02:26:36;;;;;;;8.23;4.67;;;;;;;6.92;100.00;99404.25;4361783;81;28478;-86
2021/10/15 02:32:38;;;;;;;10.50;4.92;;;;;;;7.03;100.00;99406.89;4339072;81;28479;-85
2021/10/15 02:38:40;;;;;;;12.20;5.67;;;;;;;7.03;100.00;99402.04;4362668;81;28500;-85
2021/10/15 02:44:41;;;;;;;11.53;5.05;;;;;;;7.11;100.00;99396.03;4346069;80;28516;-84
2021/10/15 02:50:43;;;;;;;10.10;4.85;;;;;;;7.05;100.00;99402.69;4299120;81;28517;-84
2021/10/15 02:56:44;;;;;;;9.83;4.75;;;;;;;7.11;100.00;99405.39;4366531;80;29175;-83
2021/10/15 03:02:46;;;;;;;12.65;6.35;;;;;;;7.22;100.00;99402.63;4339291;80;28461;-83
2021/10/15 03:08:47;;;;;;;12.05;6.60;;;;;;;7.41;100.00;99397.56;4351079;81;28546;-85
2021/10/15 03:14:48;;;;;;;12.95;5.58;;;;;;;7.50;100.00;99399.03;4313844;80;28477;-84
2021/10/15 03:20:50;;;;;;;11.25;5.20;;;;;;;7.36;100.00;99399.50;4359164;81;28533;-84
2021/10/15 03:26:51;;;;;;;10.28;4.92;;;;;;;7.29;100.00;99398.67;4340446;81;28492;-84
2021/10/15 03:32:53;;;;;;;11.20;6.22;;;;;;;7.21;100.00;99399.66;4335829;81;28533;-85
2021/10/15 03:38:54;;;;;;;11.65;6.47;;;;;;;7.30;100.00;99394.13;4327611;81;28528;-84
2021/10/15 03:44:55;;;;;;;12.45;5.95;;;;;;;7.36;100.00;99396.82;4337048;81;28458;-85
2021/10/15 03:50:56;;;;;;;11.63;5.60;;;;;;;7.36;100.00;99386.13;4344134;80;28534;-85
2021/10/15 03:56:58;;;;;;;11.43;5.87;;;;;;;7.36;100.00;99390.14;4358632;81;28480;-85
2021/10/15 04:02:59;;;;;;;9.78;5.25;;;;;;;7.32;100.00;99390.73;4354427;81;28495;-84
2021/10/15 04:09:01;;;;;;;10.48;5.80;;;;;;;7.24;100.00;99392.59;4338988;81;28557;-85
2021/10/15 04:15:05;;;;;;;11.00;5.30;;;;;;;7.31;100.00;99390.42;4330085;81;28483;-86
2021/10/15 04:21:06;;;;;;;8.55;5.08;;;;;;;7.18;100.00;99392.53;4337092;82;28489;-85
2021/10/15 04:27:08;;;;;;;9.88;5.90;;;;;;;7.21;100.00;99392.97;4278838;83;28464;-84
2021/10/15 04:33:09;;;;;;;10.08;5.80;;;;;;;7.05;100.00;99383.97;4298890;80;28511;-84
2021/10/15 04:39:10;;;;;;;8.73;5.10;;;;;;;6.96;100.00;99389.48;4303190;82;28456;-82
2021/10/15 04:45:11;;;;;;;9.75;4.80;;;;;;;6.92;100.00;99382.06;4362283;81;28569;-85
2021/10/15 04:51:13;;;;;;;8.13;4.62;;;;;;;6.92;100.00;99374.04;4363974;81;28452;-84
2021/10/15 04:57:14;;;;;;;9.38;5.00;;;;;;;7.00;100.00;99377.88;4359377;81;28495;-85
2021/10/15 05:03:15;;;;;;;12.15;5.87;;;;;;;7.00;100.00;99372.54;4341575;81;28478;-85
2021/10/15 05:09:32;;;;;;;10.93;5.25;;;;;;;7.19;100.00;99372.29;4351408;81;28461;-85
2021/10/15 05:15:29;;;;;;;9.13;4.65;;;;;;;7.11;100.00;99374.64;4352714;81;28471;-85
2021/10/15 05:21:30;;;;;;;7.12;4.15;;;;;;;7.21;100.00;99366.22;4339360;81;28456;-86
2021/10/15 05:27:33;;;;;;;8.03;3.90;;;;;;;7.34;100.00;99372.63;4390527;81;28504;-84
2021/10/15 05:33:34;;;;;;;7.42;4.10;;;;;;;7.41;100.00;99361.97;4391651;81;28503;-85
2021/10/15 05:39:36;;;;;;;9.60;3.98;;;;;;;7.57;100.00;99367.45;4395535;79;28520;-85
2021/10/15 05:45:37;;;;;;;9.80;4.83;;;;;;;7.62;100.00;99370.33;4417559;79;28469;-85
2021/10/15 05:51:42;;;;;;;8.70;3.92;;;;;;;7.68;100.00;99363.65;4392532;79;28478;-83
2021/10/15 06:16:32;;;;;;;10.10;4.65;;;;;;;8.32;100.00;99350.34;4372399;79;28482;-85
2021/10/15 06:22:33;;;;;;;11.95;4.55;;;;;;;8.58;100.00;99343.34;4392427;79;28510;-83
2021/10/15 06:28:35;;;;;;;7.78;3.15;;;;;;;8.71;100.00;99349.98;4385715;79;28506;-84
2021/10/15 06:34:36;;;;;;;4.28;2.10;;;;;;;8.97;100.00;99347.42;4392755;81;28486;-85
2021/10/15 06:40:38;;;;;;;3.98;2.50;;;;;;;9.16;100.00;99338.46;4398196;79;28494;-83
2021/10/15 06:46:40;;;;;;;4.22;2.25;;;;;;;9.41;100.00;99336.89;4356827;80;28534;-83
2021/10/15 06:52:48;;;;;;;5.50;2.00;;;;;;;9.45;100.00;99342.11;4357009;80;28515;-85
2021/10/15 06:58:49;;;;;;;3.72;1.52;;;;;;;9.49;100.00;99336.63;4380870;80;28794;-86
2021/10/15 07:04:50;;;;;;;3.15;1.65;;;;;;;9.61;100.00;99332.72;4405172;80;28434;-86
2021/10/15 07:10:52;;;;;;;2.85;1.55;;;;;;;9.89;100.00;99335.00;4397271;81;28443;-84
2021/10/15 07:16:53;;;;;;;3.40;1.40;;;;;;;10.12;100.00;99337.59;4369318;81;28526;-86
2021/10/15 07:22:55;;;;;;;2.17;1.30;;;;;;;10.52;100.00;99324.83;4358822;80;28595;-85
2021/10/15 07:28:56;;;;;;;2.33;1.40;;;;;;;10.93;100.00;99315.76;4366618;80;28581;-86
2021/10/15 07:34:58;;;;;;;1.70;1.15;;;;;;;11.22;100.00;99315.46;4357451;80;28472;-85
2021/10/15 07:41:01;;;;;;;1.60;1.07;;;;;;;11.40;100.00;99306.53;4365044;80;28454;-85
2021/10/15 07:47:02;;;;;;;2.52;1.27;;;;;;;11.51;100.00;99309.48;4354828;81;28534;-85
2021/10/15 07:53:03;;;;;;;2.10;1.20;;;;;;;11.78;100.00;99310.39;4326530;81;28499;-85
2021/10/15 07:59:05;;;;;;;2.10;1.10;;;;;;;12.15;100.00;99309.39;4335037;81;28498;-85
2021/10/15 08:05:07;;;;;;;2.90;1.20;;;;;;;12.48;100.00;99296.64;4337569;81;28460;-87
2021/10/15 08:11:11;;;;;;;2.55;1.10;;;;;;;12.65;100.00;99304.81;4364271;81;28511;-85
2021/10/15 08:17:13;;;;;;;3.05;1.37;;;;;;;12.50;100.00;99299.92;4384662;80;28469;-81
2021/10/15 08:23:14;;;;;;;1.98;1.17;;;;;;;12.36;100.00;99300.70;4386282;80;28486;-83
2021/10/15 08:29:16;;;;;;;2.17;1.17;;;;;;;12.26;100.00;99291.87;4380119;80;28442;-82
2021/10/15 08:35:18;;;;;;;2.17;1.50;;;;;;;12.26;100.00;99289.69;4376948;80;28449;-81
2021/10/15 08:41:23;;;;;;;3.12;1.42;;;;;;;12.24;100.00;99286.42;4363111;81;28432;-83
2021/10/15 08:47:25;;;;;;;3.62;1.27;;;;;;;12.22;100.00;99280.45;4364122;81;28539;-85
2021/10/15 08:53:27;;;;;;;2.65;1.80;;;;;;;12.32;100.00;99273.09;4379947;80;28470;-84
2021/10/15 08:59:47;;;;;;;3.55;1.65;;;;;;;12.46;100.00;99272.31;4384941;80;28569;-82
2021/10/15 09:05:56;;;;;;;2.30;1.37;;;;;;;12.53;100.00;99271.12;4380625;80;28465;-83
2021/10/15 09:12:14;;;;;;;2.42;1.37;;;;;;;12.63;100.00;99275.08;4385893;80;28469;-82
2021/10/15 09:18:31;;;;;;;4.15;1.42;;;;;;;12.67;100.00;99266.83;4379728;80;28483;-83
2021/10/15 09:24:40;;;;;;;3.08;1.60;;;;;;;12.72;100.00;99263.41;4382095;80;28482;-84
2021/10/15 09:30:44;;;;;;;3.10;1.60;;;;;;;12.73;100.00;99262.34;4385463;81;28477;-82
2021/10/15 09:36:49;;;;;;;4.58;1.92;;;;;;;12.69;100.00;99257.41;4383562;81;28476;-84
2021/10/15 09:43:00;;;;;;;2.67;1.57;;;;;;;12.84;100.00;99260.13;4366289;80;28450;-84
2021/10/15 09:49:01;;;;;;;4.22;1.90;;;;;;;13.10;100.00;99256.03;4378355;80;28452;-83
2021/10/15 09:55:27;;;;;;;4.60;1.77;;;;;;;13.32;100.00;99249.92;4391882;80;28469;-81
2021/10/15 10:01:28;;;;;;;5.37;1.85;;;;;;;13.34;100.00;99241.59;4363254;81;28494;-82
2021/10/15 10:07:32;;;;;;;2.95;1.60;;;;;;;13.64;100.00;99238.58;4357089;81;28524;-84
2021/10/15 10:13:33;;;;;;;2.00;1.22;;;;;;;13.76;100.00;99230.91;4358170;80;28561;-82
2021/10/15 10:19:37;;;;;;;3.02;1.60;;;;;;;13.82;95.59;99215.59;4347487;80;28555;-81
2021/10/15 10:25:39;;;;;;;2.50;1.12;;;;;;;14.13;96.27;99204.68;4312625;81;28572;-81
2021/10/15 10:31:40;;;;;;;2.83;1.25;;;;;;;14.22;91.48;99196.94;4317540;81;28570;-82
2021/10/15 10:37:42;;;;;;;3.30;1.60;;;;;;;14.30;89.87;99201.91;4264683;83;28479;-81
2021/10/15 10:43:49;;;;;;;3.55;1.57;;;;;;;14.52;90.51;99199.73;4305191;81;28468;-84
2021/10/15 10:50:11;;;;;;;2.17;1.12;;;;;;;14.59;86.90;99194.12;4284831;81;28440;-82
2021/10/15 10:56:35;;;;;;;2.10;1.27;;;;;;;14.66;82.41;99183.92;4267292;83;28510;-81
2021/10/15 11:02:53;;;;;;;2.12;1.32;;;;;;;14.89;81.69;99174.72;4310103;81;28502;-83
2021/10/15 11:08:56;;;;;;;1.55;1.02;;;;;;;15.03;76.76;99175.09;4287712;82;28547;-81
2021/10/15 11:15:07;;;;;;;2.58;1.20;;;;;;;15.10;76.22;99166.78;4291349;81;28488;-83
2021/10/15 11:21:12;;;;;;;2.00;1.00;;;;;;;15.23;75.51;99160.64;4295766;82;28539;-82
2021/10/15 11:27:16;;;;;;;2.67;1.25;;;;;;;15.23;76.22;99152.52;4275030;82;28485;-81
2021/10/15 11:33:20;;;;;;;2.30;1.12;;;;;;;15.04;77.69;99138.81;4284129;81;28464;-81
2021/10/15 11:39:22;;;;;;;1.70;1.17;;;;;;;15.04;75.14;99133.40;4289272;81;28486;-80
2021/10/15 11:45:34;;;;;;;2.10;1.22;;;;;;;15.00;74.79;99130.94;4308294;81;28544;-80
2021/10/15 11:51:35;;;;;;;2.98;0.90;;;;;;;15.04;72.69;99119.06;4288586;81;28456;-81
2021/10/15 11:57:37;;;;;;;4.05;2.60;;;;;;;15.18;73.29;99122.95;4291758;81;28463;-80
2021/10/15 12:04:07;;;;;;;2.33;1.00;;;;;;;15.38;73.22;99124.73;4322860;81;28485;-83
2021/10/15 12:10:11;;;;;;;3.67;1.30;;;;;;;15.38;72.14;99108.47;4305828;81;28521;-85
2021/10/15 12:16:22;;;;;;;2.33;1.00;;;;;;;15.37;70.00;99104.14;4325568;80;28513;-82
2021/10/15 12:22:28;;;;;;;3.05;1.72;;;;;;;15.40;71.55;99097.63;4350253;81;28501;-83
2021/10/15 12:28:33;;;;;;;2.63;1.20;;;;;;;15.35;70.12;99104.39;4351276;81;28458;-82
2021/10/15 12:35:10;;;;;;;1.30;1.00;;;;;;;15.20;70.75;99111.87;4352661;80;28446;-82
2021/10/15 12:41:10;;;;;;;2.20;1.22;;;;;;;15.12;73.24;99101.52;4349572;80;28448;-82
2021/10/15 12:47:11;;;;;;;2.83;1.40;;;;;;;15.07;73.49;99108.27;4267365;81;28509;-82
2021/10/15 12:53:19;;;;;;;2.12;1.30;;;;;;;15.09;72.86;99104.19;4294781;81;28513;-81
2021/10/15 12:59:20;;;;;;;2.90;1.30;;;;;;;14.97;73.79;99104.39;4291660;81;28445;-84
2021/10/15 13:05:22;;;;;;;2.00;1.20;;;;;;;14.95;74.03;99093.02;4352438;80;28525;-80
2021/10/15 13:11:27;;;;;;;2.05;1.20;;;;;;;14.98;74.59;99083.02;4300901;81;28478;-84
2021/10/15 13:17:28;;;;;;;1.80;1.20;;;;;;;14.87;76.54;99081.30;4336621;80;28454;-83
2021/10/15 13:23:40;;;;;;;2.00;1.22;;;;;;;14.75;77.73;99078.76;4375149;80;28489;-83
2021/10/15 13:29:44;;;;;;;1.80;1.22;;;;;;;14.49;79.78;99067.14;4350149;81;28459;-86
2021/10/15 13:35:51;;;;;;;2.17;1.30;;;;;;;14.36;82.01;99060.80;4324264;80;28540;-84
2021/10/15 13:54:16;;;;;;;1.87;1.10;;;;;;;14.06;84.32;99039.97;4374764;80;28473;-79
2021/10/15 14:00:22;;;;;;;3.02;1.30;;;;;;;13.97;85.38;99040.66;4345943;81;28486;-77
2021/10/15 14:06:20;;;;;;;2.12;1.37;;;;;;;13.87;84.57;99040.02;4320269;81;28486;-78
2021/10/15 14:12:22;;;;;;;3.72;1.20;;;;;;;13.80;86.45;99043.72;4375117;80;28436;-79
2021/10/15 14:18:23;;;;;;;4.67;1.47;;;;;;;13.89;89.33;99052.73;4300261;81;28929;-79
2021/10/15 14:24:24;;;;;;;2.60;1.50;;;;;;;13.86;88.50;99062.16;4283987;82;28500;-80
2021/10/15 14:30:27;;;;;;;2.17;1.35;;;;;;;13.57;87.03;99068.30;4294142;82;28553;-84
2021/10/15 14:36:28;;;;;;;2.72;1.25;;;;;;;13.37;88.20;99056.91;4295430;82;28507;-81
2021/10/15 14:42:31;;;;;;;1.92;1.20;;;;;;;13.23;88.80;99059.17;4295897;82;28514;-84
2021/10/15 14:48:32;;;;;;;2.95;1.22;;;;;;;13.09;89.98;99067.31;4294634;82;28504;-83
2021/10/15 14:54:33;;;;;;;2.25;1.20;;;;;;;12.94;91.79;99061.98;4290977;82;28578;-77
2021/10/15 15:00:37;;;;;;;3.08;1.40;;;;;;;12.81;92.73;99063.67;4288512;82;28447;-77
2021/10/15 15:06:38;;;;;;;5.17;1.35;;;;;;;12.68;96.12;99062.10;4279665;82;28506;-78
2021/10/15 15:12:41;;;;;;;2.47;1.42;;;;;;;12.80;96.01;99066.88;4375813;80;28424;-78
2021/10/15 15:18:42;;;;;;;2.85;1.40;;;;;;;12.78;97.99;99078.98;4383266;79;28485;-81
2021/10/15 15:24:43;;;;;;;3.67;1.60;;;;;;;12.82;96.25;99070.15;4377247;80;28493;-80
2021/10/15 15:30:44;;;;;;;4.12;1.90;;;;;;;12.81;94.84;99071.22;4350458;80;28511;-79
2021/10/15 15:36:48;;;;;;;4.40;1.98;;;;;;;12.87;94.12;99069.97;4340929;80;28445;-78
2021/10/15 15:42:50;;;;;;;2.98;1.72;;;;;;;12.83;95.41;99079.08;4368678;80;28464;-79
2021/10/15 15:48:52;;;;;;;3.90;1.85;;;;;;;12.74;96.46;99085.94;4372362;81;28476;-79
2021/10/15 15:54:57;;;;;;;2.85;1.80;;;;;;;12.69;97.12;99079.37;4349153;81;28497;-81
2021/10/15 16:00:57;;;;;;;5.03;2.27;;;;;;;12.57;98.30;99092.66;4360029;80;28510;-81
2021/10/15 16:06:58;;;;;;;4.65;2.50;;;;;;;12.59;96.40;99094.58;4356737;80;28517;-79
2021/10/15 16:13:00;;;;;;;4.55;2.25;;;;;;;12.55;96.99;99095.59;4345633;80;28536;-79
2021/10/15 16:19:02;;;;;;;5.03;2.75;;;;;;;12.51;98.48;99095.25;4363687;80;28511;-79
2021/10/15 16:25:06;;;;;;;4.75;2.45;;;;;;;12.49;99.31;99089.81;4427006;78;28513;-76
2021/10/15 16:31:12;;;;;;;4.95;2.72;;;;;;;12.36;99.93;99093.09;4448029;80;28450;-76
2021/10/15 16:37:12;;;;;;;4.83;2.37;;;;;;;12.30;100.00;99098.64;4430632;80;28478;-79
2021/10/15 16:43:13;;;;;;;4.85;2.85;;;;;;;12.24;100.00;99106.64;4362715;80;28574;-79
2021/10/15 16:49:15;;;;;;;6.25;3.02;;;;;;;11.98;100.00;99101.25;4367448;81;28493;-79
2021/10/15 16:55:18;;;;;;;5.85;3.40;;;;;;;11.76;100.00;99096.48;4366560;80;28535;-78
2021/10/15 17:01:20;;;;;;;5.35;2.92;;;;;;;11.61;100.00;99101.55;4374644;80;28459;-81
2021/10/15 17:07:21;;;;;;;5.42;2.90;;;;;;;11.30;100.00;99090.94;4366104;80;28471;-80
2021/10/15 17:13:23;;;;;;;6.10;2.22;;;;;;;11.28;100.00;99098.41;4366878;80;28464;-82
2021/10/15 17:19:24;;;;;;;4.70;2.90;;;;;;;11.20;100.00;99098.23;4369962;80;28463;-79
2021/10/15 17:25:27;;;;;;;4.75;2.65;;;;;;;11.29;100.00;99102.73;4362663;80;28510;-82
2021/10/15 17:31:29;;;;;;;6.45;3.00;;;;;;;11.22;100.00;99095.32;4371910;80;28514;-81
2021/10/15 17:37:31;;;;;;;7.60;3.75;;;;;;;11.12;100.00;99092.69;4363262;80;28613;-82
2021/10/15 17:43:32;;;;;;;6.53;3.05;;;;;;;11.03;100.00;99090.05;4351064;80;28565;-82
2021/10/15 17:49:37;;;;;;;6.40;3.05;;;;;;;10.90;100.00;99089.73;4369661;80;28494;-86
2021/10/15 17:55:38;;;;;;;5.40;2.77;;;;;;;10.72;100.00;99087.95;4351189;80;28455;-82
2021/10/15 18:01:40;;;;;;;6.28;2.67;;;;;;;10.44;100.00;99092.08;4355136;80;28459;-79
2021/10/15 18:07:44;;;;;;;3.95;2.30;;;;;;;10.29;100.00;99087.92;4367739;80;28478;-83
2021/10/15 18:13:46;;;;;;;6.58;2.65;;;;;;;10.18;100.00;99080.63;4349048;80;28556;-84
2021/10/15 18:19:49;;;;;;;6.47;3.08;;;;;;;9.99;100.00;99077.98;4432152;78;28537;-81
2021/10/15 18:25:51;;;;;;;4.83;2.85;;;;;;;10.02;100.00;99077.52;4440059;79;28465;-85
2021/10/15 18:31:52;;;;;;;5.60;2.95;;;;;;;9.85;100.00;99076.52;4437559;78;28561;-81
2021/10/15 18:37:53;;;;;;;5.72;2.67;;;;;;;9.87;100.00;99075.22;4391125;80;28535;-82
2021/10/15 18:43:55;;;;;;;6.17;3.22;;;;;;;9.87;100.00;99074.41;4376119;80;28562;-83
2021/10/15 18:49:57;;;;;;;31.52;15.15;;;;;;;9.97;100.00;99061.78;4345320;81;28492;-83
2021/10/15 18:55:58;;;;;;;7.85;4.08;;;;;;;10.00;100.00;99079.61;4428810;78;28509;-84
2021/10/15 19:02:01;;;;;;;7.92;4.05;;;;;;;10.18;100.00;99067.20;4386681;80;28436;-83
2021/10/15 19:08:03;;;;;;;10.40;5.28;;;;;;;10.18;100.00;99071.23;4382830;80;28492;-82
2021/10/15 19:14:04;;;;;;;8.83;4.30;;;;;;;10.27;100.00;99068.52;4425517;79;28457;-88
2021/10/15 19:20:07;;;;;;;8.18;3.62;;;;;;;10.29;100.00;99062.90;4419591;80;28456;-83
2021/10/15 19:26:10;;;;;;;10.20;4.70;;;;;;;10.25;100.00;99071.94;4367684;80;28460;-84
2021/10/15 19:32:11;;;;;;;9.10;4.60;;;;;;;10.39;100.00;99071.23;4444281;78;28470;-84
2021/10/15 19:38:13;;;;;;;8.98;4.80;;;;;;;10.39;100.00;99071.77;4444573;79;28470;-89
2021/10/15 19:44:14;;;;;;;10.08;4.37;;;;;;;10.39;100.00;99067.20;4444786;78;28555;-86
2021/10/15 19:50:19;;;;;;;9.58;4.15;;;;;;;10.46;100.00;99060.41;4446622;78;28459;-83
2021/10/15 19:56:20;;;;;;;10.82;4.83;;;;;;;10.29;100.00;99047.61;4427346;78;28500;-82
2021/10/15 20:02:22;;;;;;;8.28;4.60;;;;;;;10.23;100.00;99047.71;4441304;78;28508;-83
2021/10/15 20:08:23;;;;;;;8.30;4.00;;;;;;;10.30;100.00;99042.53;4421071;78;28491;-84
2021/10/15 20:14:25;;;;;;;8.00;4.72;;;;;;;10.08;100.00;99040.06;4429000;79;28501;-84
2021/10/15 20:20:26;;;;;;;13.32;5.70;;;;;;;9.96;100.00;99040.00;4372304;80;28540;-81
2021/10/15 20:26:28;;;;;;;10.93;5.42;;;;;;;9.97;100.00;99042.98;4359927;80;28479;-84
2021/10/15 20:32:29;;;;;;;12.47;6.75;;;;;;;9.97;100.00;99038.95;4377039;81;28467;-82
2021/10/15 20:38:30;;;;;;;14.15;5.78;;;;;;;9.93;100.00;99042.61;4332477;81;28507;-82
2021/10/15 20:44:32;;;;;;;11.90;5.58;;;;;;;9.84;100.00;99040.77;4341327;82;28469;-81
2021/10/15 20:50:35;;;;;;;10.60;5.05;;;;;;;9.76;100.00;99038.39;4371738;81;28542;-80
2021/10/15 20:56:36;;;;;;;11.03;5.55;;;;;;;9.83;100.00;99043.67;4318453;81;28527;-83
2021/10/15 21:02:38;;;;;;;10.05;5.70;;;;;;;9.83;100.00;99039.64;4363956;81;28475;-80
2021/10/15 21:08:40;;;;;;;13.15;5.97;;;;;;;9.76;100.00;99041.91;4372844;81;28526;-80
2021/10/15 21:14:42;;;;;;;13.48;6.25;;;;;;;9.66;100.00;99040.78;4374704;81;28557;-83
2021/10/15 21:20:43;;;;;;;12.40;6.78;;;;;;;9.71;100.00;99043.63;4365829;80;28578;-82
2021/10/15 21:26:44;;;;;;;12.15;6.75;;;;;;;9.80;100.00;99051.67;4371893;80;28529;-82
2021/10/15 21:32:47;;;;;;;13.40;7.30;;;;;;;9.79;100.00;99051.38;4376361;81;28479;-83
2021/10/15 21:38:48;;;;;;;16.48;7.92;;;;;;;9.85;100.00;99065.23;4358439;81;28509;-83
2021/10/15 21:44:50;;;;;;;13.18;7.75;;;;;;;9.93;100.00;99064.09;4325414;81;28496;-83
2021/10/15 21:50:51;;;;;;;13.08;7.17;;;;;;;9.97;100.00;99067.16;4339200;81;28464;-81
2021/10/15 21:56:52;;;;;;;18.27;8.70;;;;;;;9.94;100.00;99074.33;4377686;81;28543;-82
2021/10/15 22:02:56;;;;;;;16.02;8.80;;;;;;;10.01;100.00;99076.41;4333450;81;28537;-81
2021/10/15 22:08:58;;;;;;;23.42;11.48;;;;;;;10.10;100.00;99089.84;4347719;81;28458;-82
2021/10/15 22:15:01;;;;;;;38.65;18.32;;;;;;;10.19;100.00;99103.77;4382034;80;28476;-83
2021/10/15 22:21:02;;;;;;;33.73;16.82;;;;;;;10.19;100.00;99134.66;4344295;81;28519;-85
2021/10/15 22:27:04;;;;;;;26.52;13.88;;;;;;;10.12;100.00;99136.09;4326663;81;28482;-83
2021/10/15 22:33:05;;;;;;;25.15;13.22;;;;;;;10.13;100.00;99136.39;4366954;81;28518;-82
2021/10/15 22:39:07;;;;;;;19.12;10.28;;;;;;;10.14;100.00;99135.84;4337471;81;28499;-83
2021/10/15 22:45:10;;;;;;;16.45;9.00;;;;;;;10.16;100.00;99147.22;4371854;81;28451;-82
2021/10/15 22:51:12;;;;;;;18.57;9.83;;;;;;;10.13;100.00;99146.30;4347276;81;28471;-81
2021/10/15 22:57:13;;;;;;;16.75;9.83;;;;;;;10.19;100.00;99150.24;4343566;81;28541;-79
2021/10/15 23:03:14;;;;;;;18.02;9.83;;;;;;;10.11;100.00;99156.45;4384064;81;28456;-80
2021/10/15 23:09:16;;;;;;;15.65;9.00;;;;;;;10.06;100.00;99159.81;4346263;81;28518;-81
2021/10/15 23:15:17;;;;;;;15.78;8.63;;;;;;;10.09;100.00;99174.67;4352666;81;28480;-83
2021/10/15 23:21:18;;;;;;;16.42;9.38;;;;;;;10.09;100.00;99178.16;4286191;81;28466;-80
2021/10/15 23:27:20;;;;;;;15.18;8.83;;;;;;;10.03;100.00;99181.22;4241056;82;28534;-81
2021/10/15 23:33:22;;;;;;;14.18;8.43;;;;;;;9.99;100.00;99195.33;4242765;82;28873;-81
2021/10/15 23:39:23;;;;;;;14.15;8.18;;;;;;;9.98;100.00;99192.34;4270401;82;28580;-80
2021/10/15 23:45:24;;;;;;;14.63;7.90;;;;;;;10.00;100.00;99198.34;4242146;82;28538;-81
2021/10/15 23:51:26;;;;;;;12.63;7.37;;;;;;;10.01;100.00;99211.52;4242969;82;28521;-81
2021/10/15 23:57:27;;;;;;;12.07;6.87;;;;;;;10.10;100.00;99218.78;4242436;82;28512;-81
